createdAt,value
2023-01-20T00:00:19.961Z,1007.21
2023-01-20T00:01:19.878Z,1007.16
2023-01-20T00:02:19.908Z,1007.18
2023-01-20T00:03:19.909Z,1007.18
2023-01-20T00:04:19.845Z,1007.15
2023-01-20T00:05:19.828Z,1007.25
2023-01-20T00:06:19.859Z,1007.19
2023-01-20T00:07:19.791Z,1007.19
2023-01-20T00:08:19.833Z,1007.18
2023-01-20T00:09:19.795Z,1007.23
2023-01-20T00:10:19.761Z,1007.20
2023-01-20T00:11:19.755Z,1007.25
2023-01-20T00:12:19.725Z,1007.29
2023-01-20T00:13:19.745Z,1007.25
2023-01-20T00:14:19.722Z,1007.32
2023-01-20T00:15:19.706Z,1007.30
2023-01-20T00:16:19.733Z,1007.31
2023-01-20T00:17:19.669Z,1007.32
2023-01-20T00:18:19.682Z,1007.29
2023-01-20T00:19:19.655Z,1007.36
2023-01-20T00:20:19.660Z,1007.35
2023-01-20T00:21:19.625Z,1007.31
2023-01-20T00:22:19.609Z,1007.41
2023-01-20T00:23:19.722Z,1007.34
2023-01-20T00:24:19.607Z,1007.32
2023-01-20T00:25:19.575Z,1007.33
2023-01-20T00:26:19.621Z,1007.38
2023-01-20T00:27:20.504Z,1007.36
2023-01-20T00:28:19.541Z,1007.29
2023-01-20T00:29:19.552Z,1007.37
2023-01-20T00:30:19.625Z,1007.34
2023-01-20T00:31:19.628Z,1007.41
2023-01-20T00:32:19.518Z,1007.38
2023-01-20T00:33:19.459Z,1007.38
2023-01-20T00:34:19.477Z,1007.38
2023-01-20T00:35:19.467Z,1007.42
2023-01-20T00:36:19.478Z,1007.33
2023-01-20T00:37:19.425Z,1007.36
2023-01-20T00:38:19.407Z,1007.37
2023-01-20T00:39:19.391Z,1007.37
2023-01-20T00:40:19.369Z,1007.42
2023-01-20T00:41:19.386Z,1007.42
2023-01-20T00:42:19.363Z,1007.34
2023-01-20T00:43:19.353Z,1007.44
2023-01-20T00:44:19.416Z,1007.40
2023-01-20T00:45:19.326Z,1007.42
2023-01-20T00:46:19.377Z,1007.47
2023-01-20T00:47:19.324Z,1007.43
2023-01-20T00:48:19.271Z,1007.48
2023-01-20T00:49:19.308Z,1007.49
2023-01-20T00:50:19.248Z,1007.56
2023-01-20T00:51:19.268Z,1007.61
2023-01-20T00:52:19.236Z,1007.52
2023-01-20T00:53:19.252Z,1007.50
2023-01-20T00:54:19.196Z,1007.63
2023-01-20T00:55:19.198Z,1007.65
2023-01-20T00:56:19.207Z,1007.65
2023-01-20T00:57:19.194Z,1007.64
2023-01-20T00:58:19.189Z,1007.61
2023-01-20T00:59:19.142Z,1007.69
2023-01-20T01:00:19.121Z,1007.66
2023-01-20T01:01:19.237Z,1007.71
2023-01-20T01:02:19.159Z,1007.81
2023-01-20T01:03:19.167Z,1007.73
2023-01-20T01:04:19.080Z,1007.79
2023-01-20T01:05:19.060Z,1007.70
2023-01-20T01:06:19.067Z,1007.73
2023-01-20T01:07:19.072Z,1007.71
2023-01-20T01:08:19.067Z,1007.77
2023-01-20T01:09:19.008Z,1007.78
2023-01-20T01:10:19.014Z,1007.81
2023-01-20T01:11:19.023Z,1007.85
2023-01-20T01:12:18.974Z,1007.86
2023-01-20T01:13:18.980Z,1007.89
2023-01-20T01:14:18.955Z,1007.89
2023-01-20T01:15:18.993Z,1007.89
2023-01-20T01:16:18.977Z,1007.99
2023-01-20T01:17:18.943Z,1007.94
2023-01-20T01:18:18.907Z,1007.93
2023-01-20T01:19:18.886Z,1008.03
2023-01-20T01:20:18.897Z,1008.02
2023-01-20T01:21:18.885Z,1007.98
2023-01-20T01:22:18.847Z,1008.01
2023-01-20T01:23:18.856Z,1008.03
2023-01-20T01:24:18.842Z,1008.06
2023-01-20T01:25:18.835Z,1008.01
2023-01-20T01:26:18.812Z,1008.06
2023-01-20T01:27:18.793Z,1008.08
2023-01-20T01:28:18.830Z,1008.07
2023-01-20T01:29:18.756Z,1008.08
2023-01-20T01:30:18.833Z,1008.07
2023-01-20T01:31:18.762Z,1008.14
2023-01-20T01:32:18.754Z,1008.11
2023-01-20T01:33:18.732Z,1008.16
2023-01-20T01:34:18.709Z,1008.16
2023-01-20T01:35:18.690Z,1008.15
2023-01-20T01:36:18.677Z,1008.21
2023-01-20T01:37:18.712Z,1008.19
2023-01-20T01:38:18.650Z,1008.14
2023-01-20T01:39:18.644Z,1008.15
2023-01-20T01:40:18.623Z,1008.17
2023-01-20T01:41:18.684Z,1008.15
2023-01-20T01:42:18.632Z,1008.15
2023-01-20T01:43:18.590Z,1008.12
2023-01-20T01:44:18.575Z,1008.14
2023-01-20T01:45:18.556Z,1008.22
2023-01-20T01:46:18.561Z,1008.24
2023-01-20T01:47:18.782Z,1008.18
2023-01-20T01:48:18.577Z,1008.24
2023-01-20T01:49:18.565Z,1008.21
2023-01-20T01:50:18.494Z,1008.22
2023-01-20T01:51:18.552Z,1008.25
2023-01-20T01:52:18.498Z,1008.27
2023-01-20T01:53:18.517Z,1008.30
2023-01-20T01:54:18.439Z,1008.28
2023-01-20T01:55:18.432Z,1008.29
2023-01-20T01:56:18.428Z,1008.37
2023-01-20T01:57:18.434Z,1008.31
2023-01-20T01:58:18.393Z,1008.30
2023-01-20T01:59:18.393Z,1008.34
2023-01-20T02:00:18.376Z,1008.37
2023-01-20T02:01:18.449Z,1008.34
2023-01-20T02:02:18.412Z,1008.36
2023-01-20T02:03:18.367Z,1008.47
2023-01-20T02:04:18.329Z,1008.47
2023-01-20T02:05:18.516Z,1008.44
2023-01-20T02:06:18.316Z,1008.43
2023-01-20T02:07:18.345Z,1008.46
2023-01-20T02:08:18.261Z,1008.45
2023-01-20T02:09:18.261Z,1008.51
2023-01-20T02:10:18.261Z,1008.57
2023-01-20T02:11:18.279Z,1008.53
2023-01-20T02:12:18.251Z,1008.54
2023-01-20T02:13:18.251Z,1008.51
2023-01-20T02:14:18.190Z,1008.58
2023-01-20T02:15:18.186Z,1008.53
2023-01-20T02:16:18.234Z,1008.64
2023-01-20T02:17:18.172Z,1008.61
2023-01-20T02:18:18.146Z,1008.57
2023-01-20T02:19:18.143Z,1008.71
2023-01-20T02:20:18.115Z,1008.59
2023-01-20T02:21:18.120Z,1008.71
2023-01-20T02:22:18.137Z,1008.78
2023-01-20T02:23:18.105Z,1008.79
2023-01-20T02:24:18.089Z,1008.80
2023-01-20T02:25:20.773Z,1008.79
2023-01-20T02:26:18.055Z,1008.83
2023-01-20T02:27:18.054Z,1008.78
2023-01-20T02:28:18.024Z,1008.87
2023-01-20T02:29:18.032Z,1008.84
2023-01-20T02:30:18.046Z,1008.87
2023-01-20T02:31:18.023Z,1008.89
2023-01-20T02:32:17.981Z,1008.86
2023-01-20T02:33:17.985Z,1008.95
2023-01-20T02:34:17.939Z,1008.96
2023-01-20T02:35:17.922Z,1008.92
2023-01-20T02:36:17.913Z,1008.88
2023-01-20T02:37:17.945Z,1008.98
2023-01-20T02:38:17.894Z,1008.95
2023-01-20T02:39:27.417Z,1008.90
2023-01-20T02:40:18.896Z,1008.94
2023-01-20T02:41:17.858Z,1008.99
2023-01-20T02:42:17.852Z,1008.99
2023-01-20T02:43:17.826Z,1008.98
2023-01-20T02:44:17.928Z,1009.02
2023-01-20T02:45:17.848Z,1008.98
2023-01-20T02:46:17.788Z,1009.02
2023-01-20T02:47:17.806Z,1009.02
2023-01-20T02:48:17.755Z,1008.97
2023-01-20T02:49:17.746Z,1009.01
2023-01-20T02:50:17.759Z,1009.09
2023-01-20T02:51:17.736Z,1009.06
2023-01-20T02:52:17.716Z,1009.04
2023-01-20T02:53:17.760Z,1009.11
2023-01-20T02:54:17.703Z,1009.03
2023-01-20T02:55:17.680Z,1009.09
2023-01-20T02:56:17.656Z,1009.16
2023-01-20T02:57:17.667Z,1009.13
2023-01-20T02:58:17.657Z,1009.15
2023-01-20T02:59:17.633Z,1009.20
2023-01-20T03:00:17.612Z,1009.15
2023-01-20T03:01:17.687Z,1009.18
2023-01-20T03:02:17.623Z,1009.17
2023-01-20T03:03:17.620Z,1009.14
2023-01-20T03:04:17.564Z,1009.15
2023-01-20T03:05:17.546Z,1009.17
2023-01-20T03:06:17.532Z,1009.18
2023-01-20T03:07:17.538Z,1009.21
2023-01-20T03:08:17.515Z,1009.22
2023-01-20T03:09:17.503Z,1009.31
2023-01-20T03:10:17.476Z,1009.29
2023-01-20T03:11:17.539Z,1009.19
2023-01-20T03:12:17.453Z,1009.23
2023-01-20T03:13:17.465Z,1009.25
2023-01-20T03:14:17.438Z,1009.24
2023-01-20T03:15:17.456Z,1009.33
2023-01-20T03:16:17.462Z,1009.34
2023-01-20T03:17:17.408Z,1009.36
2023-01-20T03:18:17.391Z,1009.29
2023-01-20T03:19:19.531Z,1009.28
2023-01-20T03:20:17.369Z,1009.25
2023-01-20T03:21:17.352Z,1009.25
2023-01-20T03:22:17.347Z,1009.29
2023-01-20T03:23:17.337Z,1009.34
2023-01-20T03:24:17.315Z,1009.27
2023-01-20T03:25:17.292Z,1009.40
2023-01-20T03:26:17.286Z,1009.32
2023-01-20T03:27:17.294Z,1009.33
2023-01-20T03:28:17.279Z,1009.31
2023-01-20T03:29:17.240Z,1009.36
2023-01-20T03:30:17.223Z,1009.26
2023-01-20T03:31:17.317Z,1009.35
2023-01-20T03:32:17.226Z,1009.33
2023-01-20T03:33:17.245Z,1009.34
2023-01-20T03:34:17.174Z,1009.38
2023-01-20T03:35:17.512Z,1009.36
2023-01-20T03:36:17.156Z,1009.41
2023-01-20T03:37:17.175Z,1009.47
2023-01-20T03:38:17.150Z,1009.51
2023-01-20T03:39:17.143Z,1009.45
2023-01-20T03:40:17.115Z,1009.46
2023-01-20T03:41:17.272Z,1009.47
2023-01-20T03:42:17.087Z,1009.49
2023-01-20T03:43:17.117Z,1009.54
2023-01-20T03:44:17.407Z,1009.49
2023-01-20T03:45:17.171Z,1009.58
2023-01-20T03:46:17.040Z,1009.60
2023-01-20T03:47:17.046Z,1009.56
2023-01-20T03:48:17.011Z,1009.58
2023-01-20T03:49:17.002Z,1009.67
2023-01-20T03:50:16.997Z,1009.59
2023-01-20T03:51:16.991Z,1009.64
2023-01-20T03:52:16.966Z,1009.57
2023-01-20T03:53:16.965Z,1009.63
2023-01-20T03:54:17.121Z,1009.60
2023-01-20T03:55:17.341Z,1009.62
2023-01-20T03:56:16.896Z,1009.67
2023-01-20T03:57:16.899Z,1009.67
2023-01-20T03:58:16.870Z,1009.57
2023-01-20T03:59:16.873Z,1009.67
2023-01-20T04:00:16.949Z,1009.65
2023-01-20T04:01:18.646Z,1009.75
2023-01-20T04:02:16.999Z,1009.75
2023-01-20T04:03:16.934Z,1009.72
2023-01-20T04:04:16.807Z,1009.72
2023-01-20T04:05:17.154Z,1009.73
2023-01-20T04:06:16.777Z,1009.66
2023-01-20T04:07:17.477Z,1009.75
2023-01-20T04:08:16.745Z,1009.72
2023-01-20T04:09:16.750Z,1009.73
2023-01-20T04:10:16.746Z,1009.66
2023-01-20T04:11:16.712Z,1009.77
2023-01-20T04:12:16.732Z,1009.73
2023-01-20T04:13:16.734Z,1009.80
2023-01-20T04:14:16.734Z,1009.76
2023-01-20T04:15:17.132Z,1009.84
2023-01-20T04:16:16.667Z,1009.82
2023-01-20T04:17:16.654Z,1009.90
2023-01-20T04:18:16.646Z,1009.88
2023-01-20T04:19:16.641Z,1009.87
2023-01-20T04:20:16.602Z,1009.86
2023-01-20T04:21:16.625Z,1009.86
2023-01-20T04:22:16.590Z,1009.94
2023-01-20T04:23:16.561Z,1009.93
2023-01-20T04:24:16.584Z,1009.96
2023-01-20T04:25:16.960Z,1009.92
2023-01-20T04:26:16.535Z,1009.99
2023-01-20T04:27:16.527Z,1009.93
2023-01-20T04:28:16.504Z,1009.93
2023-01-20T04:29:16.499Z,1009.93
2023-01-20T04:30:16.478Z,1009.93
2023-01-20T04:31:29.709Z,1010.05
2023-01-20T04:32:17.464Z,1010.03
2023-01-20T04:33:16.466Z,1010.07
2023-01-20T04:34:16.464Z,1010.06
2023-01-20T04:35:16.805Z,1010.08
2023-01-20T04:36:16.397Z,1010.08
2023-01-20T04:37:16.374Z,1010.08
2023-01-20T04:38:16.390Z,1010.12
2023-01-20T04:39:16.376Z,1010.21
2023-01-20T04:40:16.373Z,1010.15
2023-01-20T04:41:16.338Z,1010.23
2023-01-20T04:42:16.331Z,1010.30
2023-01-20T04:43:16.338Z,1010.22
2023-01-20T04:44:16.329Z,1010.23
2023-01-20T04:45:16.702Z,1010.40
2023-01-20T04:46:16.347Z,1010.35
2023-01-20T04:47:16.257Z,1010.28
2023-01-20T04:48:16.249Z,1010.35
2023-01-20T04:49:16.229Z,1010.38
2023-01-20T04:50:16.264Z,1010.35
2023-01-20T04:51:16.208Z,1010.32
2023-01-20T04:52:16.213Z,1010.40
2023-01-20T04:53:16.190Z,1010.29
2023-01-20T04:54:16.174Z,1010.32
2023-01-20T04:55:16.516Z,1010.38
2023-01-20T04:56:16.147Z,1010.43
2023-01-20T04:57:16.138Z,1010.46
2023-01-20T04:58:16.171Z,1010.45
2023-01-20T04:59:16.118Z,1010.52
2023-01-20T05:00:16.123Z,1010.48
2023-01-20T05:01:16.142Z,1010.48
2023-01-20T05:02:16.105Z,1010.50
2023-01-20T05:03:16.083Z,1010.53
2023-01-20T05:04:16.056Z,1010.53
2023-01-20T05:05:16.375Z,1010.57
2023-01-20T05:06:16.023Z,1010.50
2023-01-20T05:07:16.021Z,1010.54
2023-01-20T05:08:15.998Z,1010.50
2023-01-20T05:09:16.001Z,1010.54
2023-01-20T05:10:16.006Z,1010.61
2023-01-20T05:11:15.959Z,1010.57
2023-01-20T05:12:15.934Z,1010.55
2023-01-20T05:13:15.940Z,1010.66
2023-01-20T05:14:15.911Z,1010.68
2023-01-20T05:15:16.276Z,1010.67
2023-01-20T05:16:15.975Z,1010.65
2023-01-20T05:17:15.874Z,1010.72
2023-01-20T05:18:15.895Z,1010.72
2023-01-20T05:19:15.959Z,1010.74
2023-01-20T05:20:15.858Z,1010.74
2023-01-20T05:21:15.866Z,1010.72
2023-01-20T05:22:15.835Z,1010.82
2023-01-20T05:23:15.803Z,1010.76
2023-01-20T05:24:15.831Z,1010.80
2023-01-20T05:25:16.123Z,1010.77
2023-01-20T05:26:15.910Z,1010.77
2023-01-20T05:27:16.609Z,1010.78
2023-01-20T05:28:15.732Z,1010.74
2023-01-20T05:29:15.727Z,1010.76
2023-01-20T05:30:15.759Z,1010.79
2023-01-20T05:31:15.798Z,1010.79
2023-01-20T05:32:15.739Z,1010.80
2023-01-20T05:33:15.713Z,1010.83
2023-01-20T05:34:15.674Z,1010.89
2023-01-20T05:35:16.025Z,1010.89
2023-01-20T05:36:15.672Z,1010.86
2023-01-20T05:37:15.670Z,1010.91
2023-01-20T05:38:15.612Z,1010.89
2023-01-20T05:39:15.603Z,1010.95
2023-01-20T05:40:15.600Z,1010.96
2023-01-20T05:41:15.563Z,1011.00
2023-01-20T05:42:15.605Z,1011.01
2023-01-20T05:43:15.555Z,1011.00
2023-01-20T05:44:15.546Z,1011.03
2023-01-20T05:45:15.864Z,1011.05
2023-01-20T05:46:15.596Z,1011.11
2023-01-20T05:47:15.504Z,1011.18
2023-01-20T05:48:15.485Z,1011.14
2023-01-20T05:49:15.474Z,1011.07
2023-01-20T05:50:15.487Z,1011.17
2023-01-20T05:51:15.467Z,1011.21
2023-01-20T05:52:15.527Z,1011.17
2023-01-20T05:53:15.442Z,1011.11
2023-01-20T05:54:15.409Z,1011.13
2023-01-20T05:55:15.619Z,1011.18
2023-01-20T05:56:15.443Z,1011.22
2023-01-20T05:57:15.370Z,1011.26
2023-01-20T05:58:15.409Z,1011.27
2023-01-20T05:59:15.345Z,1011.28
2023-01-20T06:00:15.355Z,1011.30
2023-01-20T06:01:15.415Z,1011.31
2023-01-20T06:02:15.325Z,1011.27
2023-01-20T06:03:15.439Z,1011.39
2023-01-20T06:04:15.289Z,1011.38
2023-01-20T06:05:15.514Z,1011.37
2023-01-20T06:06:15.323Z,1011.33
2023-01-20T06:07:15.292Z,1011.35
2023-01-20T06:08:15.274Z,1011.39
2023-01-20T06:09:15.206Z,1011.37
2023-01-20T06:10:15.213Z,1011.39
2023-01-20T06:11:16.132Z,1011.47
2023-01-20T06:12:15.191Z,1011.46
2023-01-20T06:13:15.212Z,1011.39
2023-01-20T06:14:15.165Z,1011.45
2023-01-20T06:15:15.302Z,1011.39
2023-01-20T06:16:15.149Z,1011.44
2023-01-20T06:17:15.134Z,1011.46
2023-01-20T06:18:15.098Z,1011.46
2023-01-20T06:19:15.075Z,1011.50
2023-01-20T06:20:15.099Z,1011.61
2023-01-20T06:21:15.055Z,1011.50
2023-01-20T06:22:15.089Z,1011.60
2023-01-20T06:23:15.026Z,1011.60
2023-01-20T06:24:15.035Z,1011.65
2023-01-20T06:25:15.277Z,1011.58
2023-01-20T06:26:15.024Z,1011.59
2023-01-20T06:27:14.999Z,1011.64
2023-01-20T06:28:14.992Z,1011.62
2023-01-20T06:29:14.958Z,1011.63
2023-01-20T06:30:14.936Z,1011.68
2023-01-20T06:31:15.062Z,1011.67
2023-01-20T06:32:14.935Z,1011.72
2023-01-20T06:33:14.915Z,1011.67
2023-01-20T06:34:14.936Z,1011.78
2023-01-20T06:35:15.053Z,1011.80
2023-01-20T06:36:14.907Z,1011.70
2023-01-20T06:37:14.860Z,1011.81
2023-01-20T06:38:14.874Z,1011.89
2023-01-20T06:39:14.833Z,1011.84
2023-01-20T06:40:14.816Z,1011.92
2023-01-20T06:41:14.817Z,1011.93
2023-01-20T06:42:14.796Z,1011.94
2023-01-20T06:43:14.787Z,1011.97
2023-01-20T06:44:14.800Z,1012.04
2023-01-20T06:45:14.998Z,1012.00
2023-01-20T06:46:14.784Z,1011.99
2023-01-20T06:47:14.753Z,1012.07
2023-01-20T06:48:14.715Z,1012.00
2023-01-20T06:49:14.707Z,1012.08
2023-01-20T06:50:14.687Z,1012.09
2023-01-20T06:51:14.700Z,1012.05
2023-01-20T06:52:14.665Z,1012.05
2023-01-20T06:53:14.658Z,1012.01
2023-01-20T06:54:14.667Z,1012.08
2023-01-20T06:55:14.903Z,1012.12
2023-01-20T06:56:14.621Z,1012.17
2023-01-20T06:57:14.592Z,1012.15
2023-01-20T06:58:14.602Z,1012.15
2023-01-20T06:59:14.586Z,1012.21
2023-01-20T07:00:14.581Z,1012.23
2023-01-20T07:01:14.707Z,1012.28
2023-01-20T07:02:14.649Z,1012.20
2023-01-20T07:03:14.546Z,1012.20
2023-01-20T07:04:14.522Z,1012.28
2023-01-20T07:05:14.662Z,1012.19
2023-01-20T07:06:14.505Z,1012.26
2023-01-20T07:07:14.491Z,1012.24
2023-01-20T07:08:14.494Z,1012.28
2023-01-20T07:09:14.450Z,1012.23
2023-01-20T07:10:14.431Z,1012.28
2023-01-20T07:11:14.446Z,1012.30
2023-01-20T07:12:14.418Z,1012.32
2023-01-20T07:13:14.407Z,1012.36
2023-01-20T07:14:14.389Z,1012.36
2023-01-20T07:15:14.599Z,1012.35
2023-01-20T07:16:15.847Z,1012.36
2023-01-20T07:17:14.356Z,1012.38
2023-01-20T07:18:14.354Z,1012.34
2023-01-20T07:19:14.307Z,1012.41
2023-01-20T07:20:14.319Z,1012.39
2023-01-20T07:21:14.303Z,1012.46
2023-01-20T07:22:14.288Z,1012.45
2023-01-20T07:23:14.271Z,1012.45
2023-01-20T07:24:14.291Z,1012.50
2023-01-20T07:25:14.581Z,1012.49
2023-01-20T07:26:14.232Z,1012.53
2023-01-20T07:27:14.208Z,1012.58
2023-01-20T07:28:14.202Z,1012.54
2023-01-20T07:29:15.566Z,1012.55
2023-01-20T07:30:14.242Z,1012.54
2023-01-20T07:31:14.233Z,1012.54
2023-01-20T07:32:14.161Z,1012.60
2023-01-20T07:33:14.132Z,1012.59
2023-01-20T07:34:14.149Z,1012.56
2023-01-20T07:35:14.431Z,1012.58
2023-01-20T07:36:14.165Z,1012.69
2023-01-20T07:37:14.087Z,1012.80
2023-01-20T07:38:14.108Z,1012.65
2023-01-20T07:39:14.059Z,1012.69
2023-01-20T07:40:14.043Z,1012.73
2023-01-20T07:41:14.074Z,1012.63
2023-01-20T07:42:14.032Z,1012.79
2023-01-20T07:43:13.996Z,1012.90
2023-01-20T07:44:13.997Z,1012.80
2023-01-20T07:45:14.221Z,1012.73
2023-01-20T07:46:13.994Z,1012.96
2023-01-20T07:47:13.965Z,1012.76
2023-01-20T07:48:13.945Z,1012.89
2023-01-20T07:49:13.982Z,1012.85
2023-01-20T07:50:17.720Z,1012.94
2023-01-20T07:51:13.937Z,1012.99
2023-01-20T07:52:13.911Z,1012.92
2023-01-20T07:53:13.909Z,1012.97
2023-01-20T07:54:13.869Z,1012.99
2023-01-20T07:55:14.203Z,1013.00
2023-01-20T07:56:13.850Z,1013.01
2023-01-20T07:57:13.837Z,1013.10
2023-01-20T07:58:13.826Z,1013.13
2023-01-20T07:59:13.820Z,1013.14
2023-01-20T08:00:13.796Z,1013.22
2023-01-20T08:01:13.892Z,1013.22
2023-01-20T08:02:13.849Z,1013.23
2023-01-20T08:03:13.757Z,1013.31
2023-01-20T08:04:13.746Z,1013.31
2023-01-20T08:05:14.086Z,1013.30
2023-01-20T08:06:13.767Z,1013.32
2023-01-20T08:07:13.717Z,1013.31
2023-01-20T08:08:13.869Z,1013.38
2023-01-20T08:09:13.667Z,1013.33
2023-01-20T08:10:13.662Z,1013.42
2023-01-20T08:11:13.648Z,1013.44
2023-01-20T08:12:13.655Z,1013.45
2023-01-20T08:13:13.629Z,1013.52
2023-01-20T08:14:14.444Z,1013.52
2023-01-20T08:15:13.772Z,1013.51
2023-01-20T08:16:13.735Z,1013.58
2023-01-20T08:17:13.601Z,1013.56
2023-01-20T08:18:13.579Z,1013.64
2023-01-20T08:19:13.544Z,1013.66
2023-01-20T08:20:13.533Z,1013.58
2023-01-20T08:21:13.522Z,1013.58
2023-01-20T08:22:13.528Z,1013.57
2023-01-20T08:23:13.487Z,1013.63
2023-01-20T08:24:14.432Z,1013.68
2023-01-20T08:25:13.735Z,1013.59
2023-01-20T08:26:13.475Z,1013.63
2023-01-20T08:27:13.456Z,1013.71
2023-01-20T08:28:13.484Z,1013.65
2023-01-20T08:29:13.410Z,1013.66
2023-01-20T08:30:13.417Z,1013.63
2023-01-20T08:31:13.506Z,1013.63
2023-01-20T08:32:13.439Z,1013.64
2023-01-20T08:33:13.357Z,1013.60
2023-01-20T08:34:13.392Z,1013.68
2023-01-20T08:35:13.561Z,1013.60
2023-01-20T08:36:13.335Z,1013.61
2023-01-20T08:37:13.359Z,1013.65
2023-01-20T08:38:15.092Z,1013.68
2023-01-20T08:39:13.305Z,1013.71
2023-01-20T08:40:13.287Z,1013.67
2023-01-20T08:41:13.309Z,1013.72
2023-01-20T08:42:13.308Z,1013.72
2023-01-20T08:43:13.231Z,1013.76
2023-01-20T08:44:13.257Z,1013.80
2023-01-20T08:45:13.510Z,1013.77
2023-01-20T08:46:13.220Z,1013.85
2023-01-20T08:47:13.200Z,1013.81
2023-01-20T08:48:13.188Z,1013.94
2023-01-20T08:49:13.165Z,1013.92
2023-01-20T08:50:13.162Z,1013.89
2023-01-20T08:51:13.158Z,1013.92
2023-01-20T08:52:13.134Z,1013.92
2023-01-20T08:53:13.103Z,1013.91
2023-01-20T08:54:13.144Z,1014.03
2023-01-20T08:55:13.366Z,1013.91
2023-01-20T08:56:13.081Z,1013.99
2023-01-20T08:57:13.070Z,1014.00
2023-01-20T08:58:13.043Z,1013.91
2023-01-20T08:59:13.021Z,1014.05
2023-01-20T09:00:13.011Z,1013.99
2023-01-20T09:01:13.055Z,1014.07
2023-01-20T09:02:13.007Z,1014.09
2023-01-20T09:03:12.988Z,1014.07
2023-01-20T09:04:12.987Z,1014.07
2023-01-20T09:05:13.221Z,1014.11
2023-01-20T09:06:12.941Z,1014.15
2023-01-20T09:07:12.961Z,1014.14
2023-01-20T09:08:12.909Z,1014.09
2023-01-20T09:09:12.938Z,1014.11
2023-01-20T09:10:12.912Z,1014.09
2023-01-20T09:11:12.890Z,1014.10
2023-01-20T09:12:12.874Z,1014.11
2023-01-20T09:13:12.849Z,1014.16
2023-01-20T09:14:12.827Z,1014.10
2023-01-20T09:15:13.224Z,1014.15
2023-01-20T09:16:12.842Z,1014.12
2023-01-20T09:17:12.807Z,1014.16
2023-01-20T09:18:12.805Z,1014.15
2023-01-20T09:19:12.794Z,1014.16
2023-01-20T09:20:12.750Z,1014.16
2023-01-20T09:21:12.745Z,1014.27
2023-01-20T09:22:12.740Z,1014.31
2023-01-20T09:23:12.745Z,1014.25
2023-01-20T09:24:12.718Z,1014.30
2023-01-20T09:25:12.723Z,1014.33
2023-01-20T09:26:14.455Z,1014.35
2023-01-20T09:27:13.678Z,1014.39
2023-01-20T09:28:12.664Z,1014.41
2023-01-20T09:29:12.670Z,1014.44
2023-01-20T09:30:12.614Z,1014.55
2023-01-20T09:31:12.669Z,1014.53
2023-01-20T09:32:12.603Z,1014.49
2023-01-20T09:33:12.601Z,1014.58
2023-01-20T09:34:15.082Z,1014.56
2023-01-20T09:35:12.820Z,1014.54
2023-01-20T09:36:12.561Z,1014.55
2023-01-20T09:37:12.545Z,1014.56
2023-01-20T09:38:12.516Z,1014.60
2023-01-20T09:39:12.524Z,1014.54
2023-01-20T09:40:12.506Z,1014.65
2023-01-20T09:41:12.490Z,1014.58
2023-01-20T09:42:12.498Z,1014.57
2023-01-20T09:43:12.481Z,1014.60
2023-01-20T09:44:12.500Z,1014.60
2023-01-20T09:45:12.511Z,1014.58
2023-01-20T09:46:12.426Z,1014.61
2023-01-20T09:47:12.479Z,1014.59
2023-01-20T09:48:12.386Z,1014.61
2023-01-20T09:49:12.401Z,1014.63
2023-01-20T09:50:12.393Z,1014.64
2023-01-20T09:51:12.369Z,1014.70
2023-01-20T09:52:12.339Z,1014.69
2023-01-20T09:53:12.360Z,1014.71
2023-01-20T09:54:12.315Z,1014.69
2023-01-20T09:55:12.304Z,1014.66
2023-01-20T09:56:12.282Z,1014.72
2023-01-20T09:57:12.289Z,1014.75
2023-01-20T09:58:12.311Z,1014.76
2023-01-20T09:59:12.260Z,1014.72
2023-01-20T10:00:12.305Z,1014.83
2023-01-20T10:01:12.281Z,1014.74
2023-01-20T10:02:12.241Z,1014.84
2023-01-20T10:03:12.210Z,1014.83
2023-01-20T10:04:12.195Z,1014.84
2023-01-20T10:05:12.243Z,1014.82
2023-01-20T10:06:12.168Z,1014.83
2023-01-20T10:07:12.152Z,1014.86
2023-01-20T10:08:12.151Z,1014.86
2023-01-20T10:09:12.143Z,1014.78
2023-01-20T10:10:12.115Z,1014.86
2023-01-20T10:11:12.176Z,1014.83
2023-01-20T10:12:12.083Z,1014.75
2023-01-20T10:13:12.086Z,1014.76
2023-01-20T10:14:12.054Z,1014.88
2023-01-20T10:15:12.075Z,1014.85
2023-01-20T10:16:12.107Z,1014.95
2023-01-20T10:17:12.049Z,1014.94
2023-01-20T10:18:12.062Z,1014.94
2023-01-20T10:19:11.997Z,1014.91
2023-01-20T10:20:12.001Z,1014.98
2023-01-20T10:21:12.019Z,1014.91
2023-01-20T10:22:11.975Z,1014.87
2023-01-20T10:23:11.962Z,1014.89
2023-01-20T10:24:11.920Z,1014.89
2023-01-20T10:25:11.934Z,1014.84
2023-01-20T10:26:11.913Z,1014.83
2023-01-20T10:27:11.926Z,1014.82
2023-01-20T10:28:11.886Z,1014.83
2023-01-20T10:29:11.986Z,1014.84
2023-01-20T10:30:16.024Z,1014.78
2023-01-20T10:31:11.950Z,1014.90
2023-01-20T10:32:11.845Z,1014.87
2023-01-20T10:33:11.870Z,1014.85
2023-01-20T10:34:11.802Z,1014.82
2023-01-20T10:35:11.794Z,1014.88
2023-01-20T10:36:11.782Z,1014.86
2023-01-20T10:37:11.791Z,1014.80
2023-01-20T10:38:11.814Z,1014.91
2023-01-20T10:39:11.773Z,1014.92
2023-01-20T10:40:11.803Z,1014.90
2023-01-20T10:41:13.430Z,1014.83
2023-01-20T10:42:11.704Z,1014.84
2023-01-20T10:43:11.694Z,1014.80
2023-01-20T10:44:11.685Z,1014.86
2023-01-20T10:45:11.660Z,1014.83
2023-01-20T10:46:12.628Z,1014.84
2023-01-20T10:47:13.571Z,1014.88
2023-01-20T10:48:11.609Z,1014.92
2023-01-20T10:49:11.638Z,1014.97
2023-01-20T10:50:11.593Z,1014.94
2023-01-20T10:51:11.578Z,1014.94
2023-01-20T10:52:11.564Z,1015.07
2023-01-20T10:53:13.481Z,1015.02
2023-01-20T10:54:11.580Z,1015.07
2023-01-20T10:55:11.534Z,1015.08
2023-01-20T10:56:11.529Z,1015.10
2023-01-20T10:57:11.528Z,1015.12
2023-01-20T10:58:11.490Z,1015.12
2023-01-20T10:59:11.499Z,1015.13
2023-01-20T11:00:11.464Z,1015.20
2023-01-20T11:01:11.482Z,1015.21
2023-01-20T11:02:12.709Z,1015.18
2023-01-20T11:03:11.460Z,1015.12
2023-01-20T11:04:11.458Z,1015.12
2023-01-20T11:05:11.447Z,1015.21
2023-01-20T11:06:11.391Z,1015.17
2023-01-20T11:07:11.384Z,1015.18
2023-01-20T11:08:11.399Z,1015.11
2023-01-20T11:09:11.351Z,1015.19
2023-01-20T11:10:11.361Z,1015.21
2023-01-20T11:11:11.321Z,1015.28
2023-01-20T11:12:11.329Z,1015.21
2023-01-20T11:13:11.304Z,1015.22
2023-01-20T11:14:11.339Z,1015.19
2023-01-20T11:15:11.288Z,1015.20
2023-01-20T11:16:11.362Z,1015.23
2023-01-20T11:17:11.248Z,1015.23
2023-01-20T11:18:11.250Z,1015.31
2023-01-20T11:19:11.236Z,1015.26
2023-01-20T11:20:11.255Z,1015.28
2023-01-20T11:21:11.210Z,1015.24
2023-01-20T11:22:11.201Z,1015.34
2023-01-20T11:23:11.202Z,1015.26
2023-01-20T11:24:11.237Z,1015.28
2023-01-20T11:25:11.155Z,1015.30
2023-01-20T11:26:11.148Z,1015.31
2023-01-20T11:27:11.119Z,1015.28
2023-01-20T11:28:11.121Z,1015.40
2023-01-20T11:29:11.105Z,1015.37
2023-01-20T11:30:11.096Z,1015.35
2023-01-20T11:31:11.230Z,1015.40
2023-01-20T11:32:11.051Z,1015.43
2023-01-20T11:33:11.076Z,1015.40
2023-01-20T11:34:11.041Z,1015.50
2023-01-20T11:35:11.046Z,1015.40
2023-01-20T11:36:11.032Z,1015.48
2023-01-20T11:37:10.986Z,1015.43
2023-01-20T11:38:11.009Z,1015.43
2023-01-20T11:39:10.984Z,1015.47
2023-01-20T11:40:10.977Z,1015.48
2023-01-20T11:41:10.997Z,1015.46
2023-01-20T11:42:10.916Z,1015.48
2023-01-20T11:43:10.913Z,1015.41
2023-01-20T11:44:10.908Z,1015.44
2023-01-20T11:45:21.246Z,1015.44
2023-01-20T11:46:11.938Z,1015.45
2023-01-20T11:47:10.863Z,1015.49
2023-01-20T11:48:10.863Z,1015.50
2023-01-20T11:49:10.847Z,1015.40
2023-01-20T11:50:10.900Z,1015.52
2023-01-20T11:51:10.793Z,1015.53
2023-01-20T11:52:10.775Z,1015.54
2023-01-20T11:53:10.775Z,1015.50
2023-01-20T11:54:10.836Z,1015.54
2023-01-20T11:55:10.784Z,1015.50
2023-01-20T11:56:10.745Z,1015.55
2023-01-20T11:57:10.726Z,1015.54
2023-01-20T11:58:10.743Z,1015.55
2023-01-20T11:59:10.759Z,1015.53
2023-01-20T12:00:10.736Z,1015.54
2023-01-20T12:01:10.696Z,1015.51
2023-01-20T12:02:10.689Z,1015.52
2023-01-20T12:03:10.638Z,1015.59
2023-01-20T12:04:10.673Z,1015.63
2023-01-20T12:05:10.614Z,1015.61